Time;durP1;ratioP1;P1;durP2;ratioP2;P2;SDS_P1;SDS_P2;PMS_P1;PMS_P2;Temp;Humidity;BMP_temperature;BMP_pressure;BME280_temperature;BME280_humidity;BME280_pressure;Samples;Min_cycle;Max_cycle;Signal;HPM_P1;HPM_P2
2023/08/08 00:01:24;;;;;;;1.40;1.30;;;18.60;69.00;;;;;;4897135;29;20458;-78
2023/08/08 00:03:50;;;;;;;1.67;1.30;;;18.60;69.00;;;;;;4898016;29;20065;-78
2023/08/08 00:06:15;;;;;;;3.55;1.30;;;18.60;69.00;;;;;;4897873;29;20119;-78
2023/08/08 00:08:41;;;;;;;1.77;1.50;;;18.60;69.00;;;;;;4881411;29;20108;-78
2023/08/08 00:11:07;;;;;;;1.35;1.25;;;18.50;69.00;;;;;;4897096;29;20033;-80
2023/08/08 00:13:32;;;;;;;1.83;1.60;;;18.50;69.00;;;;;;4897843;29;20032;-75
2023/08/08 00:15:58;;;;;;;1.80;1.30;;;18.50;69.00;;;;;;4897620;29;20040;-75
2023/08/08 00:18:24;;;;;;;1.75;1.45;;;18.50;69.00;;;;;;4912804;29;20044;-78
2023/08/08 00:20:50;;;;;;;2.53;1.90;;;18.50;69.00;;;;;;4881061;29;20032;-79
2023/08/08 00:23:16;;;;;;;1.60;1.50;;;18.40;69.00;;;;;;4881652;29;20143;-76
2023/08/08 00:25:41;;;;;;;2.38;1.60;;;18.40;69.00;;;;;;4897425;29;20033;-76
2023/08/08 00:28:07;;;;;;;1.65;1.50;;;18.40;69.10;;;;;;4899005;29;20037;-77
2023/08/08 00:30:33;;;;;;;1.90;1.42;;;18.40;69.10;;;;;;4915880;29;20385;-77
2023/08/08 00:32:59;;;;;;;2.28;1.35;;;18.40;69.10;;;;;;4916145;29;20508;-77
2023/08/08 00:35:25;;;;;;;2.95;1.55;;;18.40;69.10;;;;;;4884632;29;20412;-77
2023/08/08 00:37:51;;;;;;;1.70;1.50;;;18.40;69.10;;;;;;4900383;29;20501;-77
2023/08/08 00:40:18;;;;;;;1.95;1.50;;;18.40;69.20;;;;;;4900010;29;20418;-78
2023/08/08 00:42:43;;;;;;;1.88;1.70;;;18.40;69.20;;;;;;4915400;29;20127;-77
2023/08/08 00:45:09;;;;;;;1.52;1.40;;;18.40;69.20;;;;;;4884303;29;20044;-77
2023/08/08 00:47:35;;;;;;;1.73;1.38;;;18.30;69.20;;;;;;4900529;29;20439;-77
2023/08/08 00:50:03;;;;;;;1.98;1.55;;;18.30;69.20;;;;;;4899714;29;20501;-77
2023/08/08 00:52:29;;;;;;;2.05;1.70;;;18.30;69.20;;;;;;4901087;29;20032;-76
2023/08/08 00:54:56;;;;;;;1.98;1.50;;;18.30;69.20;;;;;;4900383;29;20459;-76
2023/08/08 00:57:22;;;;;;;2.08;1.58;;;18.30;69.30;;;;;;4899527;29;20036;-76
2023/08/08 00:59:48;;;;;;;1.98;1.55;;;18.30;69.30;;;;;;4901455;29;20167;-77
2023/08/08 01:02:15;;;;;;;2.00;1.55;;;18.30;69.40;;;;;;4884173;29;20048;-76
2023/08/08 01:04:41;;;;;;;1.52;1.42;;;18.30;69.30;;;;;;4900011;29;20097;-77
2023/08/08 01:07:29;;;;;;;1.60;1.50;;;18.30;69.40;;;;;;4915887;29;20064;-79
2023/08/08 01:10:04;;;;;;;2.03;1.50;;;18.20;69.40;;;;;;4900452;29;20040;-77
2023/08/08 01:12:31;;;;;;;1.80;1.52;;;18.20;69.40;;;;;;4899340;29;20461;-78
2023/08/08 01:14:57;;;;;;;2.42;1.70;;;18.20;69.40;;;;;;4884065;29;20033;-78
2023/08/08 01:17:25;;;;;;;2.47;1.40;;;18.20;69.40;;;;;;4914947;29;20128;-78
2023/08/08 01:19:52;;;;;;;2.15;1.60;;;18.20;70.10;;;;;;4899016;29;20052;-77
2023/08/08 01:22:27;;;;;;;2.42;1.50;;;18.10;70.10;;;;;;4899273;29;20521;-79
2023/08/08 01:24:54;;;;;;;1.75;1.50;;;18.20;69.50;;;;;;4899298;29;20460;-78
2023/08/08 01:27:19;;;;;;;1.40;1.30;;;18.20;69.50;;;;;;4901207;29;20044;-79
2023/08/08 01:29:46;;;;;;;2.45;1.63;;;18.20;69.60;;;;;;4914791;29;20040;-80
2023/08/08 01:32:13;;;;;;;1.75;1.55;;;18.20;69.60;;;;;;4914926;29;20041;-78
2023/08/08 01:34:39;;;;;;;2.63;1.65;;;18.10;69.60;;;;;;4883586;29;20111;-77
2023/08/08 01:37:30;;;;;;;2.08;1.70;;;18.20;69.60;;;;;;4899851;29;20450;-78
2023/08/08 01:40:00;;;;;;;2.00;1.52;;;18.10;69.60;;;;;;4898571;29;20025;-78
2023/08/08 01:42:27;;;;;;;1.77;1.42;;;18.10;69.60;;;;;;4898919;29;20477;-78
2023/08/08 01:44:54;;;;;;;2.42;1.60;;;18.10;69.60;;;;;;4898921;29;20033;-77
2023/08/08 01:47:20;;;;;;;1.88;1.48;;;18.10;69.60;;;;;;4898788;29;20037;-78
2023/08/08 01:49:45;;;;;;;1.88;1.48;;;18.10;70.30;;;;;;4900427;29;20080;-76
2023/08/08 01:52:11;;;;;;;1.85;1.58;;;18.10;69.70;;;;;;4899383;29;20127;-75
2023/08/08 01:54:37;;;;;;;2.85;1.70;;;18.10;69.80;;;;;;4882939;29;20036;-76
2023/08/08 01:57:03;;;;;;;1.70;1.50;;;18.10;69.70;;;;;;4898314;29;20039;-76
2023/08/08 01:59:29;;;;;;;2.53;1.77;;;18.10;69.80;;;;;;4898595;29;20080;-78
2023/08/08 02:01:55;;;;;;;1.98;1.50;;;18.00;69.70;;;;;;4899082;29;20036;-76
2023/08/08 02:04:21;;;;;;;2.63;1.70;;;18.10;69.80;;;;;;4882985;29;20458;-76
2023/08/08 02:06:47;;;;;;;1.73;1.42;;;18.00;69.70;;;;;;4914211;29;20025;-76
2023/08/08 02:09:15;;;;;;;2.20;1.60;;;18.10;69.80;;;;;;4898472;29;20072;-76
2023/08/08 02:11:41;;;;;;;1.60;1.42;;;18.10;69.80;;;;;;4867818;29;20037;-76
2023/08/08 02:14:07;;;;;;;2.08;1.40;;;18.00;69.80;;;;;;4899829;29;20036;-75
2023/08/08 02:16:34;;;;;;;2.63;1.45;;;18.00;69.80;;;;;;4913935;29;20033;-76
2023/08/08 02:19:00;;;;;;;2.50;1.70;;;18.00;69.80;;;;;;4899067;29;20478;-76
2023/08/08 02:21:26;;;;;;;1.77;1.42;;;18.00;69.80;;;;;;4898296;29;20028;-76
2023/08/08 02:23:52;;;;;;;2.40;1.77;;;18.00;69.80;;;;;;4897890;29;20057;-76
2023/08/08 02:26:18;;;;;;;2.15;1.50;;;18.00;69.80;;;;;;4898076;29;20103;-76
2023/08/08 02:28:44;;;;;;;1.55;1.40;;;18.00;69.90;;;;;;4898021;29;20047;-76
2023/08/08 02:31:09;;;;;;;2.58;1.52;;;18.00;69.90;;;;;;4898877;29;20039;-77
2023/08/08 02:33:35;;;;;;;2.03;1.40;;;18.00;69.90;;;;;;4898327;29;20051;-76
2023/08/08 02:36:01;;;;;;;1.95;1.70;;;18.00;69.90;;;;;;4882998;29;20404;-77
2023/08/08 02:38:27;;;;;;;2.38;1.75;;;18.00;69.90;;;;;;4898001;29;20390;-77
2023/08/08 02:40:53;;;;;;;1.80;1.50;;;18.00;69.90;;;;;;4897985;29;20039;-77
2023/08/08 02:43:18;;;;;;;2.30;1.58;;;18.00;69.90;;;;;;4898467;29;20040;-79
2023/08/08 02:45:44;;;;;;;1.60;1.50;;;18.00;69.90;;;;;;4898365;29;20063;-77
2023/08/08 02:48:10;;;;;;;1.75;1.45;;;18.00;70.00;;;;;;4898479;29;20032;-78
2023/08/08 02:50:37;;;;;;;2.30;1.40;;;18.00;70.00;;;;;;4866796;29;20036;-77
2023/08/08 02:53:02;;;;;;;1.73;1.33;;;17.90;69.90;;;;;;4898915;29;20077;-77
2023/08/08 02:55:35;;;;;;;2.17;1.52;;;17.90;69.90;;;;;;4912908;29;20032;-77
2023/08/08 02:58:01;;;;;;;2.17;1.50;;;17.90;70.00;;;;;;4898810;29;20036;-78
2023/08/08 03:00:27;;;;;;;1.70;1.52;;;17.90;70.20;;;;;;4882231;29;20367;-77
2023/08/08 03:02:53;;;;;;;2.80;1.65;;;17.90;70.00;;;;;;4882196;29;20036;-78
2023/08/08 03:05:19;;;;;;;1.92;1.33;;;17.90;70.00;;;;;;4897552;29;20401;-76
2023/08/08 03:07:46;;;;;;;2.38;1.73;;;17.90;70.00;;;;;;4882030;29;20549;-77
2023/08/08 03:10:13;;;;;;;2.17;1.40;;;17.90;70.00;;;;;;4897623;29;20036;-77
2023/08/08 03:12:41;;;;;;;1.70;1.27;;;17.90;70.00;;;;;;4898057;29;20041;-79
2023/08/08 03:15:08;;;;;;;1.83;1.40;;;17.90;70.00;;;;;;4897058;29;20055;-78
2023/08/08 03:17:34;;;;;;;1.83;1.50;;;17.90;70.00;;;;;;4912971;29;20580;-77
2023/08/08 03:20:01;;;;;;;1.58;1.38;;;17.80;70.00;;;;;;4897262;29;20156;-78
2023/08/08 03:22:27;;;;;;;2.40;1.45;;;17.80;70.00;;;;;;4912928;29;20500;-76
2023/08/08 03:24:53;;;;;;;2.42;1.50;;;17.80;70.00;;;;;;4912733;29;20143;-77
2023/08/08 03:27:18;;;;;;;2.40;1.40;;;17.80;70.10;;;;;;4897178;29;20045;-78
2023/08/08 03:29:48;;;;;;;2.20;1.60;;;17.80;70.10;;;;;;4896876;29;20036;-77
2023/08/08 03:32:15;;;;;;;3.63;1.65;;;17.80;70.10;;;;;;4896732;29;20043;-78
2023/08/08 03:34:41;;;;;;;1.98;1.35;;;17.80;70.10;;;;;;4897218;29;20036;-77
2023/08/08 03:37:07;;;;;;;2.67;1.67;;;17.80;70.10;;;;;;4897252;29;20032;-76
2023/08/08 03:39:33;;;;;;;2.03;1.67;;;17.80;70.10;;;;;;4881707;29;20040;-77
2023/08/08 03:41:59;;;;;;;2.25;1.65;;;17.80;70.10;;;;;;4866716;29;20060;-77
2023/08/08 03:44:24;;;;;;;2.50;1.73;;;17.70;70.00;;;;;;4881834;29;20048;-76
2023/08/08 03:46:50;;;;;;;2.67;1.50;;;17.80;70.10;;;;;;4896885;29;20048;-77
2023/08/08 03:49:16;;;;;;;1.73;1.60;;;17.70;70.00;;;;;;4897186;29;20036;-77
2023/08/08 03:51:42;;;;;;;1.80;1.27;;;17.70;70.10;;;;;;4897024;29;20032;-76
2023/08/08 03:54:08;;;;;;;2.70;1.83;;;17.70;70.10;;;;;;4896916;29;20073;-77
2023/08/08 03:56:34;;;;;;;2.33;1.52;;;17.70;70.10;;;;;;4896970;29;20032;-77
2023/08/08 03:59:00;;;;;;;2.85;1.52;;;17.70;70.20;;;;;;4897160;29;20040;-77
2023/08/08 04:01:25;;;;;;;3.58;1.70;;;17.70;70.20;;;;;;4897304;29;20474;-77
2023/08/08 04:03:51;;;;;;;2.72;1.70;;;17.60;70.20;;;;;;4916536;29;20045;-77
2023/08/08 04:06:17;;;;;;;1.98;1.50;;;17.60;70.20;;;;;;4900626;29;20419;-76
2023/08/08 04:08:42;;;;;;;4.93;1.60;;;17.60;70.20;;;;;;4885235;29;20028;-76
2023/08/08 04:11:08;;;;;;;2.25;1.67;;;17.60;70.20;;;;;;4900545;29;20390;-77
2023/08/08 04:13:34;;;;;;;2.95;1.75;;;17.60;70.20;;;;;;4900491;29;20041;-77
2023/08/08 04:16:00;;;;;;;2.67;1.67;;;17.60;70.30;;;;;;4885082;29;20033;-78
2023/08/08 04:18:26;;;;;;;1.90;1.67;;;17.60;70.30;;;;;;4885570;29;20420;-78
2023/08/08 04:20:52;;;;;;;1.67;1.58;;;17.60;70.30;;;;;;4900297;29;20075;-77
2023/08/08 04:23:18;;;;;;;2.13;1.50;;;17.60;70.30;;;;;;4884820;29;20052;-77
2023/08/08 04:25:44;;;;;;;2.38;1.90;;;17.60;70.40;;;;;;4900469;29;20076;-78
2023/08/08 04:28:10;;;;;;;2.70;1.70;;;17.60;70.30;;;;;;4899810;29;20041;-77
2023/08/08 04:30:36;;;;;;;3.42;1.67;;;17.60;70.40;;;;;;4915608;29;20402;-77
2023/08/08 04:33:01;;;;;;;2.55;1.73;;;17.60;70.40;;;;;;4915665;29;20066;-77
2023/08/08 04:35:27;;;;;;;2.13;1.70;;;17.60;70.40;;;;;;4900547;29;20073;-77
2023/08/08 04:37:53;;;;;;;3.22;1.75;;;17.60;70.40;;;;;;4901092;29;20033;-76
2023/08/08 04:40:18;;;;;;;2.80;1.67;;;17.60;70.30;;;;;;4901599;29;20047;-77
2023/08/08 04:42:44;;;;;;;2.50;2.03;;;17.60;70.40;;;;;;4915325;29;20459;-77
2023/08/08 04:45:10;;;;;;;2.17;1.98;;;17.60;70.40;;;;;;4885113;29;20036;-77
2023/08/08 04:47:36;;;;;;;3.17;1.52;;;17.50;70.40;;;;;;4901285;29;20033;-77
2023/08/08 04:50:02;;;;;;;2.53;1.83;;;17.60;70.50;;;;;;4899971;29;20036;-78
2023/08/08 04:52:27;;;;;;;2.10;1.67;;;17.60;70.50;;;;;;4900791;29;20096;-76
2023/08/08 04:54:53;;;;;;;2.03;1.70;;;17.50;71.10;;;;;;4900853;29;20032;-76
2023/08/08 04:57:19;;;;;;;2.03;1.60;;;17.50;70.40;;;;;;4900756;29;20040;-76
2023/08/08 04:59:44;;;;;;;2.88;1.83;;;17.50;70.40;;;;;;4915124;29;20383;-75
2023/08/08 05:02:10;;;;;;;3.42;2.08;;;17.60;70.50;;;;;;4884574;29;20041;-75
2023/08/08 05:04:36;;;;;;;2.75;1.80;;;17.60;70.50;;;;;;4899282;29;20486;-76
2023/08/08 05:07:02;;;;;;;2.80;1.60;;;17.50;70.50;;;;;;4900526;29;20047;-76
2023/08/08 05:09:28;;;;;;;2.35;1.63;;;17.50;70.50;;;;;;4914950;29;20040;-76
2023/08/08 05:11:53;;;;;;;1.83;1.40;;;17.50;70.50;;;;;;4900525;29;20059;-76
2023/08/08 05:14:20;;;;;;;2.15;1.48;;;17.50;70.50;;;;;;4899781;29;20379;-76
2023/08/08 05:16:46;;;;;;;2.08;1.65;;;17.50;70.50;;;;;;4899765;29;20081;-75
2023/08/08 05:19:12;;;;;;;2.63;1.73;;;17.50;70.60;;;;;;4899397;29;20505;-77
2023/08/08 05:21:38;;;;;;;2.28;1.80;;;17.50;70.60;;;;;;4899156;29;20040;-76
2023/08/08 05:24:04;;;;;;;1.90;1.70;;;17.50;70.60;;;;;;4914693;29;20064;-77
2023/08/08 05:26:29;;;;;;;2.17;1.60;;;17.50;70.60;;;;;;4915139;29;20496;-76
2023/08/08 05:28:55;;;;;;;2.50;1.70;;;17.50;70.60;;;;;;4899254;29;20123;-75
2023/08/08 05:31:21;;;;;;;2.30;1.77;;;17.50;70.60;;;;;;4883884;29;20108;-76
2023/08/08 05:33:49;;;;;;;2.88;1.88;;;17.50;70.60;;;;;;4899112;29;20044;-75
2023/08/08 05:36:14;;;;;;;2.97;1.90;;;17.50;70.70;;;;;;4900030;29;20557;-76
2023/08/08 05:38:41;;;;;;;3.05;1.83;;;17.50;70.60;;;;;;4900401;29;20074;-75
2023/08/08 05:41:07;;;;;;;2.67;1.83;;;17.50;70.70;;;;;;4898956;29;20037;-76
2023/08/08 05:43:34;;;;;;;1.65;1.52;;;17.50;70.70;;;;;;4898855;29;20032;-76
2023/08/08 05:45:59;;;;;;;2.67;1.85;;;17.50;70.70;;;;;;4900165;29;20044;-77
2023/08/08 05:48:25;;;;;;;3.08;1.90;;;17.50;70.70;;;;;;4899805;29;20386;-76
2023/08/08 05:50:51;;;;;;;1.85;1.58;;;17.50;71.30;;;;;;4899676;29;20041;-76
2023/08/08 05:53:17;;;;;;;2.65;1.85;;;17.50;70.70;;;;;;4898960;29;20478;-77
2023/08/08 05:55:43;;;;;;;2.47;1.92;;;17.50;70.70;;;;;;4899061;29;20462;-75
2023/08/08 05:58:09;;;;;;;3.13;1.75;;;17.50;70.70;;;;;;4914299;29;20060;-76
2023/08/08 06:00:34;;;;;;;2.25;1.77;;;17.50;70.70;;;;;;4898921;29;20541;-76
2023/08/08 06:03:01;;;;;;;2.42;1.77;;;17.50;70.70;;;;;;4898838;29;20121;-77
2023/08/08 06:05:28;;;;;;;2.60;1.92;;;17.50;70.70;;;;;;4899253;29;20104;-76
2023/08/08 06:07:55;;;;;;;2.58;1.88;;;17.50;70.70;;;;;;4898726;29;20060;-76
2023/08/08 06:10:21;;;;;;;2.42;1.85;;;17.50;70.70;;;;;;4883395;29;20044;-76
2023/08/08 06:12:47;;;;;;;3.05;2.00;;;17.60;70.80;;;;;;4898237;29;20033;-77
2023/08/08 06:15:13;;;;;;;2.58;1.83;;;17.50;70.70;;;;;;4883439;29;20114;-76
2023/08/08 06:17:39;;;;;;;2.17;1.80;;;17.60;70.80;;;;;;4899270;29;20040;-76
2023/08/08 06:20:06;;;;;;;4.05;2.13;;;17.60;70.80;;;;;;4883051;29;20037;-76
2023/08/08 06:22:32;;;;;;;2.35;1.88;;;17.60;70.80;;;;;;4898398;29;20056;-77
2023/08/08 06:24:58;;;;;;;2.33;1.88;;;17.60;70.80;;;;;;4897983;29;20056;-75
2023/08/08 06:27:24;;;;;;;1.88;1.65;;;17.60;70.80;;;;;;4898445;29;20096;-76
2023/08/08 06:29:50;;;;;;;2.30;1.95;;;17.60;70.80;;;;;;4897929;29;20044;-77
2023/08/08 06:32:15;;;;;;;3.15;1.77;;;17.60;70.80;;;;;;4897969;29;20482;-76
2023/08/08 06:34:41;;;;;;;2.05;1.70;;;17.60;70.80;;;;;;4897806;29;20080;-76
2023/08/08 06:37:07;;;;;;;2.47;1.58;;;17.70;70.80;;;;;;4914136;29;20080;-77
2023/08/08 06:39:33;;;;;;;3.70;1.90;;;17.70;70.80;;;;;;4899199;29;20522;-77
2023/08/08 06:41:59;;;;;;;2.42;1.60;;;17.70;70.80;;;;;;4898614;29;20032;-76
2023/08/08 06:44:42;;;;;;;3.42;1.95;;;17.70;70.80;;;;;;4884100;29;20400;-76
2023/08/08 06:47:08;;;;;;;2.20;1.58;;;17.70;70.80;;;;;;4899694;29;20029;-75
2023/08/08 06:49:34;;;;;;;2.13;1.73;;;17.70;70.70;;;;;;4898082;29;20032;-76
2023/08/08 06:52:00;;;;;;;2.90;1.50;;;17.70;70.80;;;;;;4882317;29;20037;-76
2023/08/08 06:54:28;;;;;;;2.88;1.63;;;17.70;70.70;;;;;;4882029;29;20561;-77
2023/08/08 06:56:56;;;;;;;3.38;1.70;;;17.80;70.80;;;;;;4897955;29;20037;-75
2023/08/08 06:59:22;;;;;;;2.60;1.70;;;17.80;70.80;;;;;;4899318;29;20084;-75
2023/08/08 07:01:48;;;;;;;2.28;1.75;;;17.80;70.80;;;;;;4897746;29;20056;-76
2023/08/08 07:04:14;;;;;;;2.03;1.40;;;17.80;70.80;;;;;;4899180;29;20048;-76
2023/08/08 07:06:40;;;;;;;2.17;1.45;;;17.80;70.80;;;;;;4897625;29;20029;-76
2023/08/08 07:09:10;;;;;;;2.28;1.67;;;17.80;70.80;;;;;;4912978;29;20116;-75
2023/08/08 07:11:36;;;;;;;2.78;1.70;;;17.80;70.90;;;;;;4882266;29;20124;-76
2023/08/08 07:14:02;;;;;;;2.08;1.60;;;17.90;70.80;;;;;;4897485;29;20072;-75
2023/08/08 07:16:27;;;;;;;1.75;1.55;;;17.90;70.80;;;;;;4897284;29;20529;-76
2023/08/08 07:18:53;;;;;;;2.05;1.58;;;17.90;70.80;;;;;;4897295;29;20036;-75
2023/08/08 07:21:19;;;;;;;1.60;1.50;;;17.90;70.80;;;;;;4913862;29;20340;-75
2023/08/08 07:23:44;;;;;;;2.38;1.60;;;18.00;70.80;;;;;;4897051;29;20135;-76
2023/08/08 07:26:10;;;;;;;3.00;1.70;;;18.00;70.80;;;;;;4898048;29;20459;-76
2023/08/08 07:28:36;;;;;;;2.50;1.80;;;18.00;70.80;;;;;;4897465;29;20041;-76
2023/08/08 07:31:02;;;;;;;3.40;1.77;;;18.00;70.70;;;;;;4897929;29;20036;-75
2023/08/08 07:33:27;;;;;;;1.33;1.23;;;18.00;70.80;;;;;;4881446;29;20393;-77
2023/08/08 07:35:53;;;;;;;1.80;1.27;;;18.00;70.70;;;;;;4912704;29;20377;-75
2023/08/08 07:38:19;;;;;;;1.35;1.23;;;18.10;70.80;;;;;;4897052;29;20427;-76
2023/08/08 07:40:45;;;;;;;2.17;1.65;;;18.10;70.70;;;;;;4897478;29;20125;-76
2023/08/08 07:43:12;;;;;;;2.60;1.58;;;18.10;70.70;;;;;;4897906;29;20044;-76
2023/08/08 07:45:38;;;;;;;1.65;1.48;;;18.10;70.70;;;;;;4898398;29;20046;-76
2023/08/08 07:48:04;;;;;;;2.08;1.80;;;18.10;70.70;;;;;;4897011;29;20490;-76
2023/08/08 07:50:31;;;;;;;1.55;1.30;;;18.10;70.60;;;;;;4896923;29;20048;-75
2023/08/08 07:52:56;;;;;;;1.40;1.25;;;18.10;70.60;;;;;;4882218;29;20119;-76
2023/08/08 07:55:22;;;;;;;2.08;1.38;;;18.10;70.60;;;;;;4897031;29;20075;-75
2023/08/08 07:57:48;;;;;;;1.40;1.30;;;18.20;70.60;;;;;;4898040;29;20072;-76
2023/08/08 08:00:14;;;;;;;1.90;1.30;;;18.20;70.60;;;;;;4881627;29;20300;-76
2023/08/08 08:02:43;;;;;;;2.60;1.60;;;18.20;70.50;;;;;;4896681;29;20033;-75
2023/08/08 08:05:09;;;;;;;1.38;1.05;;;18.20;70.50;;;;;;4897216;29;20507;-76
2023/08/08 08:07:35;;;;;;;1.95;1.27;;;18.30;70.50;;;;;;4897843;29;20037;-75
2023/08/08 08:10:07;;;;;;;1.65;1.20;;;18.30;70.40;;;;;;4897297;29;20033;-76
2023/08/08 08:12:33;;;;;;;2.55;1.50;;;18.30;70.40;;;;;;4896787;29;20059;-75
2023/08/08 08:14:59;;;;;;;1.52;1.23;;;18.40;70.30;;;;;;4881707;29;20040;-76
2023/08/08 08:17:25;;;;;;;1.30;1.10;;;18.40;70.20;;;;;;4896823;29;20375;-76
2023/08/08 08:19:51;;;;;;;1.90;1.27;;;18.40;70.20;;;;;;4898205;29;20115;-75
2023/08/08 08:22:17;;;;;;;1.65;1.27;;;18.50;70.10;;;;;;4881017;29;20044;-76
2023/08/08 08:24:43;;;;;;;1.73;1.20;;;18.50;70.00;;;;;;4896253;29;20087;-76
2023/08/08 08:27:09;;;;;;;1.30;1.20;;;18.50;69.90;;;;;;4898048;29;20060;-75
2023/08/08 08:29:35;;;;;;;1.10;1.00;;;18.60;69.80;;;;;;4896672;29;20044;-76
2023/08/08 08:32:00;;;;;;;1.23;1.13;;;18.60;69.70;;;;;;4896680;29;20068;-76
2023/08/08 08:34:26;;;;;;;1.20;1.10;;;18.70;70.30;;;;;;4897405;29;20068;-76
2023/08/08 08:36:52;;;;;;;1.33;1.10;;;18.80;69.60;;;;;;4881066;29;20052;-75
2023/08/08 08:39:17;;;;;;;1.23;1.10;;;18.80;69.50;;;;;;4896694;29;20524;-76
2023/08/08 08:41:48;;;;;;;1.10;1.00;;;18.80;69.40;;;;;;4881163;29;20037;-76
2023/08/08 08:44:16;;;;;;;1.10;1.00;;;18.90;69.30;;;;;;4896660;29;20058;-74
2023/08/08 08:46:42;;;;;;;1.10;1.00;;;19.00;69.30;;;;;;4896533;29;20040;-77
2023/08/08 08:49:10;;;;;;;1.77;1.13;;;19.00;69.20;;;;;;4897781;29;20038;-76
2023/08/08 08:51:39;;;;;;;0.93;0.93;;;19.10;69.20;;;;;;4884162;29;20033;-76
2023/08/08 08:54:05;;;;;;;1.10;1.00;;;19.10;69.10;;;;;;4899605;29;20041;-76
2023/08/08 08:56:32;;;;;;;1.00;0.90;;;19.20;69.00;;;;;;4900077;29;20032;-79
2023/08/08 08:58:59;;;;;;;0.85;0.85;;;19.20;68.90;;;;;;4915572;29;20064;-78
2023/08/08 09:01:27;;;;;;;1.00;0.90;;;19.30;68.90;;;;;;4900669;29;20111;-80
2023/08/08 09:03:53;;;;;;;0.90;0.90;;;19.30;68.80;;;;;;4899590;29;20041;-78
2023/08/08 09:06:20;;;;;;;1.02;0.90;;;19.40;68.70;;;;;;4899762;29;20052;-78
2023/08/08 09:08:47;;;;;;;1.20;0.98;;;19.40;68.70;;;;;;4915144;29;20525;-78
2023/08/08 09:11:13;;;;;;;1.20;1.10;;;19.40;68.60;;;;;;4901597;29;20064;-79
2023/08/08 09:13:39;;;;;;;1.08;0.80;;;19.50;68.60;;;;;;4901063;29;20135;-79
2023/08/08 09:16:07;;;;;;;1.83;0.93;;;19.50;68.50;;;;;;4900811;29;20028;-78
2023/08/08 09:18:33;;;;;;;1.00;0.90;;;19.60;68.50;;;;;;4899296;29;20455;-78
2023/08/08 09:20:59;;;;;;;1.08;0.98;;;19.60;68.40;;;;;;4883881;29;20033;-77
2023/08/08 09:23:25;;;;;;;1.17;0.85;;;19.60;68.40;;;;;;4900178;29;20119;-78
2023/08/08 09:25:51;;;;;;;1.05;0.90;;;19.70;68.30;;;;;;4899115;29;20083;-78
2023/08/08 09:28:17;;;;;;;0.82;0.82;;;19.80;68.20;;;;;;4915102;29;20036;-77
2023/08/08 09:30:44;;;;;;;0.93;0.90;;;19.80;68.20;;;;;;4899126;29;20037;-78
2023/08/08 09:33:11;;;;;;;0.77;0.77;;;19.80;68.10;;;;;;4914909;29;20061;-78
2023/08/08 09:35:40;;;;;;;0.75;0.75;;;19.90;68.10;;;;;;4899413;29;20040;-77
2023/08/08 09:38:06;;;;;;;1.38;0.80;;;19.90;68.10;;;;;;4899125;29;20037;-77
2023/08/08 09:40:31;;;;;;;1.35;0.90;;;20.00;68.00;;;;;;4898738;29;20033;-77
2023/08/08 09:43:00;;;;;;;2.10;0.82;;;20.00;68.00;;;;;;4883149;29;20096;-78
2023/08/08 09:45:26;;;;;;;0.98;0.80;;;20.10;67.90;;;;;;4914667;29;20037;-79
2023/08/08 09:47:52;;;;;;;0.80;0.80;;;20.20;67.90;;;;;;4914927;29;20093;-78
2023/08/08 09:50:19;;;;;;;1.20;0.80;;;20.20;67.80;;;;;;4883406;29;20037;-78
2023/08/08 09:52:46;;;;;;;0.77;0.77;;;20.20;67.80;;;;;;4899150;29;20040;-78
2023/08/08 09:55:13;;;;;;;0.88;0.70;;;20.30;67.70;;;;;;4914871;29;20029;-78
2023/08/08 09:57:41;;;;;;;0.60;0.60;;;20.40;67.70;;;;;;4898767;29;20032;-77
2023/08/08 10:00:15;;;;;;;0.98;0.70;;;20.40;67.60;;;;;;4898391;29;20044;-79
2023/08/08 10:02:46;;;;;;;0.80;0.80;;;20.40;67.50;;;;;;4884069;29;20033;-77
2023/08/08 10:05:13;;;;;;;0.75;0.75;;;20.50;67.50;;;;;;4898845;29;20029;-77
2023/08/08 10:07:43;;;;;;;0.70;0.70;;;20.50;67.50;;;;;;4914011;29;20029;-77
2023/08/08 10:10:09;;;;;;;0.70;0.70;;;20.60;67.50;;;;;;4898473;29;20035;-77
2023/08/08 10:12:42;;;;;;;0.60;0.60;;;20.70;67.50;;;;;;4899356;29;20040;-77
2023/08/08 10:15:09;;;;;;;0.80;0.80;;;20.70;67.50;;;;;;4882871;29;20061;-78
2023/08/08 10:17:39;;;;;;;1.13;0.70;;;20.80;67.40;;;;;;4914270;29;20172;-78
2023/08/08 10:20:11;;;;;;;1.35;0.80;;;20.80;67.40;;;;;;4898205;29;20482;-77
2023/08/08 10:22:41;;;;;;;0.93;0.73;;;20.90;67.30;;;;;;4898353;29;20032;-78
2023/08/08 10:25:08;;;;;;;0.50;0.50;;;21.00;67.20;;;;;;4897939;29;20057;-80
2023/08/08 10:27:36;;;;;;;0.73;0.73;;;21.00;67.10;;;;;;4914593;29;20371;-78
2023/08/08 10:30:10;;;;;;;0.65;0.65;;;21.10;67.00;;;;;;4898297;29;20033;-78
2023/08/08 10:32:46;;;;;;;0.80;0.80;;;21.20;67.10;;;;;;4898269;29;20462;-79
2023/08/08 10:35:12;;;;;;;0.70;0.70;;;21.20;66.90;;;;;;4914262;29;20111;-78
2023/08/08 10:37:39;;;;;;;0.60;0.60;;;21.20;66.80;;;;;;4899015;29;20108;-78
2023/08/08 10:40:06;;;;;;;0.80;0.80;;;21.30;66.80;;;;;;4897968;29;20028;-78
2023/08/08 10:42:41;;;;;;;0.60;0.60;;;21.40;66.80;;;;;;4899231;29;20025;-78
2023/08/08 10:45:12;;;;;;;1.58;0.80;;;21.40;66.80;;;;;;4913533;29;20108;-78
2023/08/08 10:47:37;;;;;;;0.82;0.82;;;21.50;66.70;;;;;;4898156;29;20045;-79
2023/08/08 10:50:15;;;;;;;1.75;0.60;;;21.50;66.60;;;;;;4882388;29;20109;-78
2023/08/08 10:52:52;;;;;;;0.82;0.80;;;21.60;66.70;;;;;;4914355;29;20028;-78
2023/08/08 10:55:20;;;;;;;0.70;0.70;;;21.60;66.60;;;;;;4899214;29;20040;-78
2023/08/08 10:58:08;;;;;;;0.70;0.70;;;21.70;66.60;;;;;;4897592;29;20037;-78
2023/08/08 11:00:36;;;;;;;0.60;0.60;;;21.70;66.60;;;;;;4898427;29;20039;-79
2023/08/08 11:03:04;;;;;;;0.70;0.70;;;21.70;66.50;;;;;;4897761;29;20036;-79
2023/08/08 11:05:35;;;;;;;0.60;0.60;;;21.70;66.50;;;;;;4914632;29;20036;-79
2023/08/08 11:08:04;;;;;;;0.70;0.70;;;21.70;66.50;;;;;;4899103;29;20474;-78
2023/08/08 11:10:38;;;;;;;0.82;0.70;;;21.70;66.50;;;;;;4900270;29;20036;-79
2023/08/08 11:13:05;;;;;;;0.70;0.65;;;21.80;66.50;;;;;;4898448;29;20478;-80
2023/08/08 11:15:36;;;;;;;0.68;0.68;;;21.80;66.50;;;;;;4881873;29;20032;-79
2023/08/08 11:18:03;;;;;;;0.75;0.75;;;21.80;66.50;;;;;;4897766;29;20036;-79
2023/08/08 11:20:34;;;;;;;0.77;0.70;;;21.90;66.60;;;;;;4882299;29;20037;-79
2023/08/08 11:23:00;;;;;;;0.80;0.80;;;21.90;66.60;;;;;;4897347;29;20548;-79
2023/08/08 11:25:28;;;;;;;0.75;0.70;;;21.90;66.60;;;;;;4912755;29;20080;-81
2023/08/08 11:27:54;;;;;;;1.02;0.70;;;21.90;66.70;;;;;;4912878;29;20044;-80
2023/08/08 11:30:22;;;;;;;0.70;0.70;;;22.00;66.70;;;;;;4882681;29;20521;-80
2023/08/08 11:32:49;;;;;;;1.33;0.80;;;22.00;66.70;;;;;;4897854;29;20047;-79
2023/08/08 11:35:21;;;;;;;2.75;0.85;;;22.00;66.70;;;;;;4898804;29;20061;-79
2023/08/08 11:37:48;;;;;;;0.82;0.80;;;22.10;66.70;;;;;;4897508;29;20052;-78
2023/08/08 11:40:15;;;;;;;0.90;0.77;;;22.10;66.70;;;;;;4896825;29;20139;-81
2023/08/08 11:42:42;;;;;;;0.70;0.70;;;22.10;66.70;;;;;;4897018;29;20028;-79
2023/08/08 11:45:12;;;;;;;0.80;0.80;;;22.20;66.70;;;;;;4881499;29;20036;-81
2023/08/08 11:47:39;;;;;;;0.85;0.70;;;22.20;66.70;;;;;;4881583;29;20033;-80
2023/08/08 11:50:07;;;;;;;0.70;0.70;;;22.30;66.70;;;;;;4898758;29;20036;-80
2023/08/08 11:52:35;;;;;;;0.63;0.63;;;22.30;66.60;;;;;;4898773;29;20032;-81
2023/08/08 11:55:01;;;;;;;0.55;0.55;;;22.30;66.60;;;;;;4896781;29;20032;-80
2023/08/08 11:57:27;;;;;;;0.70;0.70;;;22.30;66.60;;;;;;4912539;29;20036;-81
2023/08/08 11:59:54;;;;;;;0.70;0.70;;;22.40;66.60;;;;;;4898752;29;20063;-80
2023/08/08 12:02:19;;;;;;;0.50;0.50;;;22.40;66.60;;;;;;4882535;29;20037;-80
2023/08/08 12:04:46;;;;;;;0.70;0.70;;;22.40;66.60;;;;;;4882467;29;20382;-80
2023/08/08 12:07:12;;;;;;;0.73;0.73;;;22.40;66.60;;;;;;4881516;29;20032;-78
2023/08/08 12:09:39;;;;;;;0.60;0.60;;;22.50;66.60;;;;;;4896947;29;20502;-79
2023/08/08 12:12:05;;;;;;;0.70;0.70;;;22.50;66.60;;;;;;4898082;29;20067;-79
2023/08/08 12:14:39;;;;;;;1.10;0.80;;;22.50;66.50;;;;;;4896914;29;20065;-79
2023/08/08 12:17:05;;;;;;;0.77;0.77;;;22.60;66.60;;;;;;4898927;29;20032;-78
2023/08/08 12:19:31;;;;;;;0.88;0.70;;;22.60;66.50;;;;;;4897981;29;20284;-78
2023/08/08 12:21:57;;;;;;;1.48;0.85;;;22.60;66.50;;;;;;4912277;29;20033;-79
2023/08/08 12:24:23;;;;;;;0.80;0.80;;;22.60;66.50;;;;;;4915379;29;20516;-79
2023/08/08 12:26:48;;;;;;;0.90;0.80;;;22.60;66.40;;;;;;4901408;29;20530;-79
2023/08/08 12:29:14;;;;;;;1.00;0.82;;;22.70;66.40;;;;;;4900325;29;20041;-77
2023/08/08 12:31:40;;;;;;;0.93;0.93;;;22.70;66.40;;;;;;4900580;29;20111;-78
2023/08/08 12:34:06;;;;;;;0.77;0.77;;;22.70;66.40;;;;;;4885475;29;20045;-78
2023/08/08 12:36:31;;;;;;;1.38;0.98;;;22.70;66.30;;;;;;4900261;29;20037;-78
2023/08/08 12:38:57;;;;;;;0.77;0.77;;;22.70;66.30;;;;;;4900044;29;20548;-80
2023/08/08 12:41:24;;;;;;;1.15;1.00;;;22.70;66.30;;;;;;4901077;29;20029;-78
2023/08/08 12:43:51;;;;;;;0.85;0.85;;;22.80;66.40;;;;;;4899917;29;20048;-77
2023/08/08 12:46:16;;;;;;;1.23;0.95;;;22.80;66.30;;;;;;4915459;29;20087;-78